createdAt,value
2018-12-26T00:03:14.385Z,9.73
2018-12-26T00:05:44.087Z,8.43
2018-12-26T00:08:13.749Z,8.73
2018-12-26T01:02:43.802Z,9.10
2018-12-26T01:05:13.603Z,7.73
2018-12-26T01:07:43.233Z,7.60
2018-12-26T02:02:38.136Z,6.70
2018-12-26T02:05:07.750Z,6.13
2018-12-26T02:07:37.358Z,6.67
2018-12-26T03:02:38.208Z,6.10
2018-12-26T03:05:07.904Z,5.57
2018-12-26T03:07:37.599Z,4.50
2018-12-26T04:02:40.000Z,4.73
2018-12-26T04:05:09.731Z,4.70
2018-12-26T04:07:39.332Z,4.43
2018-12-26T05:02:42.302Z,4.67
2018-12-26T05:05:11.921Z,3.70
2018-12-26T05:07:41.623Z,3.30
2018-12-26T06:03:05.705Z,4.67
2018-12-26T06:05:35.385Z,4.83
2018-12-26T06:08:05.071Z,4.37
2018-12-26T07:02:40.476Z,2.20
2018-12-26T07:05:10.104Z,2.83
2018-12-26T07:07:39.807Z,2.80
2018-12-26T08:02:40.488Z,3.40
2018-12-26T08:05:10.118Z,2.73
2018-12-26T08:07:39.731Z,1.93
2018-12-26T09:02:46.789Z,3.00
2018-12-26T09:05:16.413Z,3.43
2018-12-26T09:07:46.146Z,3.13
2018-12-26T10:02:40.871Z,3.00
2018-12-26T10:05:10.611Z,2.67
2018-12-26T10:07:40.253Z,2.27
2018-12-26T11:02:37.971Z,3.30
2018-12-26T11:05:08.355Z,2.90
2018-12-26T11:07:38.075Z,2.60
2018-12-26T12:02:45.738Z,2.33
2018-12-26T12:05:15.399Z,2.00
2018-12-26T12:07:45.109Z,2.43
2018-12-26T13:02:40.404Z,2.30
2018-12-26T13:05:10.021Z,1.93
2018-12-26T13:07:39.734Z,2.20
2018-12-26T14:02:40.572Z,1.97
2018-12-26T14:05:10.184Z,1.90
2018-12-26T14:07:39.790Z,2.17
2018-12-26T15:02:38.075Z,2.07
2018-12-26T15:05:07.809Z,1.80
2018-12-26T15:07:37.449Z,2.10
2018-12-26T15:10:07.411Z,1.63
2018-12-26T15:12:37.064Z,1.90
2018-12-26T15:15:06.875Z,1.90
2018-12-26T15:17:36.559Z,2.17
2018-12-26T15:20:06.864Z,2.10
2018-12-26T15:22:36.498Z,1.83
2018-12-26T15:25:06.450Z,2.20
2018-12-26T15:27:36.048Z,2.20
2018-12-26T15:30:06.002Z,2.00
2018-12-26T15:32:35.867Z,2.10
2018-12-26T15:35:05.773Z,1.90
2018-12-26T15:37:35.885Z,1.90
2018-12-26T15:40:06.357Z,2.33
2018-12-26T15:42:36.122Z,2.33
2018-12-26T15:45:06.371Z,1.90
2018-12-26T15:47:36.032Z,2.30
2018-12-26T15:50:06.214Z,2.40
2018-12-26T15:52:35.832Z,3.13
2018-12-26T15:55:05.520Z,2.57
2018-12-26T15:57:35.211Z,2.30
2018-12-26T16:00:05.233Z,2.20
2018-12-26T16:02:34.987Z,2.60
2018-12-26T16:05:04.715Z,2.40
2018-12-26T16:07:34.391Z,2.53
2018-12-26T16:10:05.379Z,2.37
2018-12-26T16:12:35.446Z,2.17
2018-12-26T16:15:05.787Z,1.90
2018-12-26T16:17:35.428Z,2.03
2018-12-26T16:20:05.345Z,2.27
2018-12-26T16:22:34.992Z,2.00
2018-12-26T16:25:04.798Z,1.97
2018-12-26T16:27:34.457Z,1.90
2018-12-26T16:30:04.169Z,2.13
2018-12-26T16:32:33.792Z,1.80
2018-12-26T16:35:03.516Z,1.90
2018-12-26T16:37:33.160Z,1.80
2018-12-26T16:40:02.936Z,1.80
2018-12-26T16:42:32.618Z,1.80
2018-12-26T16:45:02.330Z,1.60
2018-12-26T16:47:31.952Z,1.03
2018-12-26T16:50:01.639Z,1.57
2018-12-26T16:52:31.240Z,1.60
2018-12-26T16:55:00.960Z,2.00
2018-12-26T16:57:30.619Z,1.40
2018-12-26T17:00:00.395Z,1.80
2018-12-26T17:02:30.279Z,2.40
2018-12-26T17:04:59.915Z,1.90
2018-12-26T17:07:29.648Z,1.80
2018-12-26T17:09:59.299Z,1.63
2018-12-26T17:12:29.012Z,1.73
2018-12-26T17:14:58.633Z,1.73
2018-12-26T17:17:28.364Z,1.63
2018-12-26T17:19:58.052Z,1.93
2018-12-26T17:22:27.787Z,1.90
2018-12-26T17:24:57.492Z,1.70
2018-12-26T17:27:27.219Z,1.73
2018-12-26T17:29:56.848Z,1.60
2018-12-26T17:32:26.531Z,1.57
2018-12-26T17:34:56.200Z,1.50
2018-12-26T17:37:25.817Z,1.60
2018-12-26T17:39:55.904Z,1.70
2018-12-26T17:42:25.656Z,1.60
2018-12-26T17:44:55.303Z,1.97
2018-12-26T17:48:38.206Z,1.90
2018-12-26T17:51:13.588Z,2.20
2018-12-26T17:54:10.516Z,1.77
2018-12-26T17:56:55.443Z,2.33
2018-12-26T18:00:05.627Z,2.00
2018-12-26T18:02:40.422Z,1.73
2018-12-26T18:05:11.333Z,2.30
2018-12-26T18:07:42.172Z,1.67
2018-12-26T18:10:13.032Z,2.00
2018-12-26T18:12:43.842Z,2.00
2018-12-26T18:15:14.809Z,2.30
2018-12-26T18:17:45.557Z,2.30
2018-12-26T18:20:15.908Z,1.90
2018-12-26T18:22:46.717Z,1.97
2018-12-26T18:27:55.025Z,1.97
2018-12-26T18:30:25.864Z,2.20
2018-12-26T18:32:56.704Z,1.20
2018-12-26T18:36:06.458Z,2.20
2018-12-26T18:38:37.323Z,2.27
2018-12-26T18:42:41.677Z,2.17
2018-12-26T18:45:12.340Z,1.90
2018-12-26T18:48:27.077Z,1.77
2018-12-26T18:50:57.712Z,2.03
2018-12-26T18:53:28.513Z,1.43
2018-12-26T18:55:59.348Z,2.40
2018-12-26T18:58:29.992Z,2.23
2018-12-26T19:01:00.668Z,1.63
2018-12-26T19:03:31.468Z,2.50
2018-12-26T19:06:02.139Z,1.70
2018-12-26T19:08:32.897Z,1.80
2018-12-26T19:11:03.613Z,1.90
2018-12-26T19:13:34.348Z,1.73
2018-12-26T19:16:05.138Z,2.03
2018-12-26T19:18:35.972Z,1.57
2018-12-26T19:21:06.707Z,1.57
2018-12-26T19:23:37.467Z,1.37
2018-12-26T19:26:08.155Z,2.00
2018-12-26T19:28:39.150Z,1.57
2018-12-26T19:31:10.005Z,1.80
2018-12-26T19:33:40.776Z,1.50
2018-12-26T19:36:11.540Z,1.60
2018-12-26T19:38:42.248Z,1.40
2018-12-26T19:41:12.917Z,1.50
2018-12-26T19:43:43.576Z,1.70
2018-12-26T19:46:14.494Z,1.93
2018-12-26T19:48:45.588Z,1.47
2018-12-26T19:51:16.399Z,1.90
2018-12-26T19:53:47.067Z,1.50
2018-12-26T19:56:19.478Z,1.57
2018-12-26T19:58:50.186Z,1.80
2018-12-26T20:01:20.960Z,1.63
2018-12-26T20:03:51.663Z,1.70
2018-12-26T20:06:22.363Z,1.57
2018-12-26T20:08:53.199Z,1.60
2018-12-26T20:11:24.098Z,1.70
2018-12-26T20:16:01.574Z,1.30
2018-12-26T20:18:32.253Z,1.60
2018-12-26T20:21:02.936Z,1.77
2018-12-26T20:23:33.720Z,1.53
2018-12-26T20:26:04.539Z,1.20
2018-12-26T20:28:35.357Z,1.40
2018-12-26T20:31:06.213Z,1.53
2018-12-26T20:33:36.933Z,1.67
2018-12-26T20:36:07.620Z,1.73
2018-12-26T20:38:38.383Z,1.50
2018-12-26T20:41:09.163Z,1.43
2018-12-26T20:43:40.024Z,1.47
2018-12-26T20:46:10.773Z,1.70
2018-12-26T20:48:41.423Z,1.33
2018-12-26T20:51:12.163Z,2.60
2018-12-26T20:53:42.809Z,1.60
2018-12-26T20:56:13.535Z,1.33
2018-12-26T20:58:44.468Z,1.30
2018-12-26T21:01:15.347Z,1.40
2018-12-26T21:03:46.121Z,1.60
2018-12-26T21:06:17.073Z,1.43
2018-12-26T21:08:47.815Z,1.70
2018-12-26T21:11:18.451Z,1.70
2018-12-26T21:13:49.276Z,1.70
2018-12-26T21:16:20.012Z,1.47
2018-12-26T21:18:50.795Z,1.27
2018-12-26T21:21:21.569Z,1.70
2018-12-26T21:23:52.281Z,1.47
2018-12-26T21:26:22.929Z,1.37
2018-12-26T21:28:53.800Z,1.70
2018-12-26T21:31:24.732Z,1.67
2018-12-26T21:33:56.808Z,1.70
2018-12-26T21:36:27.515Z,1.97
2018-12-26T21:38:58.366Z,1.43
2018-12-26T21:41:29.101Z,1.50
2018-12-26T21:43:59.948Z,1.57
2018-12-26T21:46:30.610Z,1.93
2018-12-26T21:49:01.331Z,1.60
2018-12-26T21:51:32.008Z,1.37
2018-12-26T21:54:02.727Z,1.60
2018-12-26T21:56:33.460Z,2.10
2018-12-26T21:59:04.343Z,2.43
2018-12-26T22:01:35.011Z,1.40
2018-12-26T22:04:05.767Z,1.70
2018-12-26T22:06:36.429Z,1.50
2018-12-26T22:09:08.080Z,1.67
2018-12-26T22:11:38.822Z,1.87
2018-12-26T22:14:09.479Z,1.57
2018-12-26T22:16:40.227Z,1.80
2018-12-26T22:19:12.854Z,2.00
2018-12-26T22:21:43.236Z,1.80
2018-12-26T22:24:14.104Z,1.53
2018-12-26T22:26:45.008Z,2.13
2018-12-26T22:29:15.663Z,1.60
2018-12-26T22:31:46.533Z,1.80
2018-12-26T22:34:17.191Z,1.50
2018-12-26T22:37:01.535Z,1.40
2018-12-26T22:39:32.310Z,1.43
2018-12-26T22:46:28.759Z,1.07
2018-12-26T22:48:59.692Z,1.60
2018-12-26T22:51:30.438Z,1.70
2018-12-26T22:54:01.087Z,1.30
2018-12-26T22:56:31.799Z,1.70
2018-12-26T22:59:02.743Z,1.50
2018-12-26T23:01:33.336Z,1.40
2018-12-26T23:04:04.080Z,1.50
2018-12-26T23:06:34.776Z,1.63
2018-12-26T23:09:07.622Z,1.70
2018-12-26T23:11:38.287Z,1.73
2018-12-26T23:14:08.971Z,1.50
2018-12-26T23:16:39.884Z,1.70
2018-12-26T23:19:10.763Z,1.47
2018-12-26T23:21:41.419Z,1.70
2018-12-26T23:24:12.161Z,1.83
2018-12-26T23:26:42.845Z,1.93
2018-12-26T23:29:13.519Z,2.40
2018-12-26T23:31:44.251Z,1.93
2018-12-26T23:34:14.913Z,1.77
2018-12-26T23:36:45.875Z,2.00
2018-12-26T23:39:16.627Z,1.90
2018-12-26T23:41:47.276Z,2.00
2018-12-26T23:44:18.243Z,2.13
2018-12-26T23:46:49.089Z,2.13
2018-12-26T23:49:19.814Z,1.70
2018-12-26T23:51:50.507Z,1.93
2018-12-26T23:54:21.154Z,2.00
2018-12-26T23:56:51.909Z,1.97
2018-12-26T23:59:22.608Z,2.00
